createdAt,value
2023-05-25T00:00:13.484Z,11.20
2023-05-25T00:02:40.237Z,11.20
2023-05-25T00:05:09.144Z,11.30
2023-05-25T00:07:35.807Z,11.40
2023-05-25T00:10:02.584Z,11.40
2023-05-25T00:12:29.201Z,11.40
2023-05-25T00:14:56.085Z,11.50
2023-05-25T00:17:24.283Z,11.60
2023-05-25T00:19:51.498Z,11.60
2023-05-25T00:22:18.227Z,11.80
2023-05-25T00:24:44.946Z,11.60
2023-05-25T00:27:11.608Z,11.70
2023-05-25T00:29:38.219Z,11.70
2023-05-25T00:32:05.466Z,11.70
2023-05-25T00:34:32.058Z,11.80
2023-05-25T00:36:58.706Z,11.80
2023-05-25T00:39:25.398Z,11.80
2023-05-25T00:41:52.049Z,11.80
2023-05-25T00:44:21.706Z,11.80
2023-05-25T00:46:50.750Z,11.90
2023-05-25T00:49:19.123Z,11.90
2023-05-25T00:51:47.722Z,11.90
2023-05-25T00:54:15.965Z,11.90
2023-05-25T00:56:56.081Z,12.00
2023-05-25T00:59:29.535Z,12.00
2023-05-25T01:01:59.105Z,12.00
2023-05-25T01:04:30.097Z,12.00
2023-05-25T01:06:57.972Z,12.00
2023-05-25T01:09:30.845Z,11.90
2023-05-25T01:12:01.274Z,11.80
2023-05-25T01:14:28.717Z,11.80
2023-05-25T01:16:59.113Z,11.70
2023-05-25T01:19:25.880Z,11.50
2023-05-25T01:22:04.932Z,11.50
2023-05-25T01:24:46.353Z,11.40
2023-05-25T01:27:39.540Z,11.40
2023-05-25T01:30:14.342Z,11.40
2023-05-25T01:32:45.661Z,11.30
2023-05-25T01:35:13.481Z,11.30
2023-05-25T01:37:49.419Z,11.30
2023-05-25T01:40:16.364Z,11.20
2023-05-25T01:42:43.093Z,11.20
2023-05-25T01:45:12.442Z,11.20
2023-05-25T01:47:57.529Z,11.10
2023-05-25T01:50:36.421Z,11.10
2023-05-25T01:53:04.761Z,11.10
2023-05-25T01:55:43.335Z,11.00
2023-05-25T01:58:11.995Z,11.00
2023-05-25T02:00:40.621Z,10.80
2023-05-25T02:03:10.170Z,11.00
2023-05-25T02:05:37.834Z,11.00
2023-05-25T02:08:07.374Z,11.10
2023-05-25T02:10:34.023Z,11.00
2023-05-25T02:13:00.705Z,10.90
2023-05-25T02:15:32.528Z,11.00
2023-05-25T02:18:02.994Z,10.90
2023-05-25T02:20:29.861Z,10.90
2023-05-25T02:22:56.529Z,10.80
2023-05-25T02:25:23.183Z,10.70
2023-05-25T02:27:50.685Z,10.70
2023-05-25T02:30:17.401Z,10.70
2023-05-25T02:32:44.223Z,10.60
2023-05-25T02:35:10.894Z,10.70
2023-05-25T02:37:37.668Z,10.70
2023-05-25T02:40:05.781Z,10.70
2023-05-25T02:42:32.501Z,10.70
2023-05-25T02:44:59.132Z,10.70
2023-05-25T02:47:26.153Z,10.70
2023-05-25T02:49:52.793Z,10.70
2023-05-25T02:52:19.444Z,10.70
2023-05-25T02:54:46.041Z,10.60
2023-05-25T02:57:12.632Z,10.60
2023-05-25T02:59:39.216Z,10.70
2023-05-25T03:02:06.184Z,10.70
2023-05-25T03:04:34.332Z,10.70
2023-05-25T03:07:01.746Z,10.70
2023-05-25T03:09:28.871Z,10.70
2023-05-25T03:11:55.696Z,10.70
2023-05-25T03:14:22.602Z,10.70
2023-05-25T03:16:50.427Z,10.70
2023-05-25T03:19:20.434Z,10.70
2023-05-25T03:21:47.521Z,10.70
2023-05-25T03:24:14.226Z,10.70
2023-05-25T03:26:40.864Z,10.70
2023-05-25T03:29:07.526Z,10.60
2023-05-25T03:31:34.258Z,10.70
2023-05-25T03:34:00.870Z,10.70
2023-05-25T03:36:27.535Z,10.70
2023-05-25T03:38:54.804Z,10.70
2023-05-25T03:41:21.879Z,10.80
2023-05-25T03:43:48.482Z,10.70
2023-05-25T03:46:15.136Z,10.70
2023-05-25T03:48:41.867Z,10.60
2023-05-25T03:51:08.543Z,10.70
2023-05-25T03:53:35.167Z,10.70
2023-05-25T03:56:01.779Z,10.70
2023-05-25T03:58:28.418Z,10.70
2023-05-25T04:00:56.165Z,10.60
2023-05-25T04:03:23.140Z,10.40
2023-05-25T04:05:50.123Z,10.70
2023-05-25T04:08:19.893Z,10.80
2023-05-25T04:10:47.197Z,10.90
2023-05-25T04:13:14.134Z,11.10
2023-05-25T04:15:40.799Z,11.20
2023-05-25T04:18:07.501Z,11.30
2023-05-25T04:20:34.161Z,11.40
2023-05-25T04:23:00.837Z,11.50
2023-05-25T04:25:29.514Z,11.50
2023-05-25T04:27:56.770Z,11.60
2023-05-25T04:30:23.817Z,11.60
2023-05-25T04:32:50.604Z,11.60
2023-05-25T04:35:20.775Z,11.60
2023-05-25T04:37:48.329Z,11.70
2023-05-25T04:40:14.969Z,11.70
2023-05-25T04:42:41.920Z,11.70
2023-05-25T04:45:10.527Z,11.70
2023-05-25T04:47:40.941Z,11.80
2023-05-25T04:50:10.037Z,11.80
2023-05-25T04:52:36.784Z,11.90
2023-05-25T04:55:03.550Z,11.90
2023-05-25T04:57:31.459Z,12.00
2023-05-25T04:59:58.695Z,12.00
2023-05-25T05:02:28.345Z,12.10
2023-05-25T05:04:55.148Z,12.10
2023-05-25T05:07:22.202Z,12.20
2023-05-25T05:09:49.409Z,12.30
2023-05-25T05:12:16.106Z,12.40
2023-05-25T05:14:42.789Z,12.40
2023-05-25T05:17:09.441Z,12.50
2023-05-25T05:19:36.253Z,12.60
2023-05-25T05:22:02.875Z,12.70
2023-05-25T05:24:29.477Z,12.80
2023-05-25T05:26:58.956Z,12.80
2023-05-25T05:29:28.110Z,12.90
2023-05-25T05:31:55.913Z,13.00
2023-05-25T05:34:22.628Z,13.00
2023-05-25T05:36:57.153Z,13.10
2023-05-25T05:39:25.259Z,13.20
2023-05-25T05:41:52.029Z,13.30
2023-05-25T05:44:20.502Z,13.30
2023-05-25T05:46:47.275Z,13.40
2023-05-25T05:49:13.975Z,13.40
2023-05-25T05:51:40.622Z,13.50
2023-05-25T05:54:07.263Z,13.70
2023-05-25T05:56:33.893Z,13.90
2023-05-25T05:59:00.668Z,14.10
2023-05-25T06:01:27.269Z,14.20
2023-05-25T06:03:54.801Z,14.30
2023-05-25T06:06:21.664Z,14.30
2023-05-25T06:08:48.369Z,14.70
2023-05-25T06:11:15.019Z,14.60
2023-05-25T06:13:41.643Z,14.80
2023-05-25T06:16:08.374Z,15.00
2023-05-25T06:18:35.046Z,15.10
2023-05-25T06:21:02.438Z,15.00
2023-05-25T06:23:29.089Z,15.10
2023-05-25T06:25:55.819Z,15.20
2023-05-25T06:28:22.432Z,15.10
2023-05-25T06:30:49.164Z,15.20
2023-05-25T06:33:15.877Z,15.30
2023-05-25T06:35:42.798Z,15.40
2023-05-25T06:38:09.632Z,16.00
2023-05-25T06:40:36.247Z,15.70
2023-05-25T06:43:02.999Z,15.60
2023-05-25T06:45:29.595Z,15.70
2023-05-25T06:47:56.324Z,15.90
2023-05-25T06:50:23.059Z,16.20
2023-05-25T06:52:49.666Z,16.10
2023-05-25T06:55:16.557Z,16.10
2023-05-25T06:57:43.828Z,16.20
2023-05-25T07:00:12.179Z,16.40
2023-05-25T07:02:39.500Z,16.60
2023-05-25T07:05:06.568Z,16.70
2023-05-25T07:07:33.354Z,16.70
2023-05-25T07:10:00.014Z,16.80
2023-05-25T07:12:26.628Z,16.90
2023-05-25T07:14:53.279Z,17.00
2023-05-25T07:17:20.200Z,17.00
2023-05-25T07:19:48.700Z,17.10
2023-05-25T07:22:18.866Z,17.10
2023-05-25T07:24:46.857Z,17.10
2023-05-25T07:27:14.492Z,17.30
2023-05-25T07:29:41.203Z,17.50
2023-05-25T07:32:08.213Z,17.30
2023-05-25T07:34:35.244Z,17.20
2023-05-25T07:37:01.936Z,17.30
2023-05-25T07:39:28.771Z,17.40
2023-05-25T07:41:55.575Z,17.60
2023-05-25T07:44:22.258Z,17.60
2023-05-25T07:46:48.969Z,18.00
2023-05-25T07:49:18.521Z,18.20
2023-05-25T07:51:45.745Z,18.40
2023-05-25T07:54:12.728Z,18.90
2023-05-25T07:56:39.564Z,19.00
2023-05-25T07:59:06.447Z,18.70
2023-05-25T08:01:33.143Z,19.20
2023-05-25T08:04:00.266Z,19.70
2023-05-25T08:06:27.121Z,19.90
2023-05-25T08:08:53.789Z,19.90
2023-05-25T08:11:24.598Z,19.70
2023-05-25T08:13:51.335Z,19.50
2023-05-25T08:16:18.974Z,19.10
2023-05-25T08:18:46.929Z,19.00
2023-05-25T08:21:14.244Z,18.90
2023-05-25T08:23:42.344Z,18.80
2023-05-25T08:26:29.001Z,18.80
2023-05-25T08:28:58.978Z,18.90
2023-05-25T08:31:25.628Z,18.80
2023-05-25T08:33:52.273Z,18.90
2023-05-25T08:36:18.937Z,18.90
2023-05-25T08:38:45.879Z,19.00
2023-05-25T08:41:13.504Z,19.30
2023-05-25T08:43:42.589Z,19.30
2023-05-25T08:46:09.610Z,19.30
2023-05-25T08:48:41.935Z,19.10
2023-05-25T08:51:13.256Z,19.30
2023-05-25T08:53:41.453Z,19.60
2023-05-25T08:56:19.162Z,20.00
2023-05-25T08:58:53.025Z,20.00
2023-05-25T09:01:23.020Z,19.70
2023-05-25T09:03:51.441Z,19.60
2023-05-25T09:06:18.410Z,19.50
2023-05-25T09:08:45.488Z,19.70
2023-05-25T09:11:16.543Z,19.80
2023-05-25T09:13:44.287Z,19.60
2023-05-25T09:16:11.283Z,19.50
2023-05-25T09:18:38.305Z,19.10
2023-05-25T09:21:05.009Z,19.00
2023-05-25T09:23:32.267Z,19.10
2023-05-25T09:25:59.559Z,19.40
2023-05-25T09:28:27.564Z,19.60
2023-05-25T09:30:55.904Z,19.50
2023-05-25T09:33:22.681Z,19.40
2023-05-25T09:35:49.450Z,19.40
2023-05-25T09:38:17.149Z,19.30
2023-05-25T09:40:44.830Z,19.50
2023-05-25T09:43:17.204Z,19.40
2023-05-25T09:45:49.009Z,19.70
2023-05-25T09:48:15.860Z,19.80
2023-05-25T09:50:43.114Z,19.70
2023-05-25T09:53:10.969Z,19.70
2023-05-25T09:55:52.000Z,19.60
2023-05-25T09:58:23.715Z,19.60
2023-05-25T10:00:54.540Z,19.90
2023-05-25T10:03:21.706Z,20.00
2023-05-25T10:05:49.063Z,20.10
2023-05-25T10:08:19.753Z,20.10
2023-05-25T10:10:47.686Z,19.70
2023-05-25T10:13:16.331Z,19.60
2023-05-25T10:15:45.640Z,19.70
2023-05-25T10:18:15.610Z,19.80
2023-05-25T10:20:43.981Z,20.00
2023-05-25T10:23:14.557Z,20.30
2023-05-25T10:25:44.859Z,20.20
2023-05-25T10:28:19.659Z,19.90
2023-05-25T10:30:47.490Z,19.80
2023-05-25T10:33:14.225Z,19.80
2023-05-25T10:36:01.704Z,19.90
2023-05-25T10:38:31.525Z,19.90
2023-05-25T10:40:59.929Z,20.00
2023-05-25T10:43:27.383Z,20.10
2023-05-25T10:45:55.604Z,20.00
2023-05-25T10:48:23.639Z,20.30
2023-05-25T10:50:51.594Z,20.30
2023-05-25T10:53:23.394Z,20.40
2023-05-25T10:56:02.885Z,20.50
2023-05-25T10:58:30.913Z,20.40
2023-05-25T11:00:59.846Z,20.60
2023-05-25T11:03:45.323Z,20.70
2023-05-25T11:06:17.028Z,20.60
2023-05-25T11:09:00.166Z,20.90
2023-05-25T11:11:42.052Z,21.00
2023-05-25T11:14:30.326Z,21.10
2023-05-25T11:17:14.790Z,21.20
2023-05-25T11:19:51.033Z,21.20
2023-05-25T11:22:20.438Z,21.10
2023-05-25T11:24:51.992Z,20.80
2023-05-25T11:27:27.547Z,20.60
2023-05-25T11:29:56.524Z,20.50
2023-05-25T11:32:23.672Z,20.20
2023-05-25T11:34:54.013Z,20.40
2023-05-25T11:37:24.643Z,20.40
2023-05-25T11:39:52.389Z,20.10
2023-05-25T11:42:24.192Z,20.20
2023-05-25T11:44:51.256Z,20.40
2023-05-25T11:47:22.972Z,20.30
2023-05-25T11:49:50.103Z,20.40
2023-05-25T11:52:18.213Z,20.80
2023-05-25T11:54:45.832Z,20.90
2023-05-25T11:57:25.016Z,20.90
2023-05-25T11:59:54.117Z,20.90
2023-05-25T12:02:21.777Z,20.90
2023-05-25T12:05:01.342Z,21.00
2023-05-25T12:07:29.926Z,20.60
2023-05-25T12:10:08.294Z,20.60
2023-05-25T12:12:46.081Z,20.40
2023-05-25T12:15:20.949Z,20.20
2023-05-25T12:17:48.676Z,20.10
2023-05-25T12:20:17.114Z,20.10
2023-05-25T12:22:44.972Z,20.10
2023-05-25T12:25:13.248Z,20.20
2023-05-25T12:27:43.703Z,20.20
2023-05-25T12:30:11.715Z,20.10
2023-05-25T12:33:03.351Z,20.10
2023-05-25T12:35:43.953Z,20.00
2023-05-25T12:38:17.226Z,20.10
2023-05-25T12:40:44.753Z,20.00
2023-05-25T12:43:12.110Z,20.10
2023-05-25T12:45:42.825Z,20.00
2023-05-25T12:48:09.914Z,19.80
2023-05-25T12:50:41.336Z,19.90
2023-05-25T12:53:08.220Z,19.90
2023-05-25T12:55:35.663Z,19.80
2023-05-25T12:58:05.454Z,19.70
2023-05-25T13:00:39.921Z,19.60
2023-05-25T13:03:07.719Z,19.70
2023-05-25T13:05:37.686Z,19.90
2023-05-25T13:08:06.011Z,20.20
2023-05-25T13:10:33.175Z,20.40
2023-05-25T13:12:59.892Z,20.60
2023-05-25T13:15:27.247Z,20.40
2023-05-25T13:17:58.168Z,20.00
2023-05-25T13:20:26.680Z,19.80
2023-05-25T13:22:55.675Z,19.50
2023-05-25T13:25:22.790Z,19.60
2023-05-25T13:27:51.914Z,19.70
2023-05-25T13:30:20.789Z,19.90
2023-05-25T13:32:49.505Z,20.10
2023-05-25T13:35:36.459Z,20.30
2023-05-25T13:38:03.547Z,20.10
2023-05-25T13:40:30.201Z,20.40
2023-05-25T13:42:56.844Z,20.30
2023-05-25T13:45:23.490Z,20.30
2023-05-25T13:47:50.337Z,20.40
2023-05-25T13:50:17.108Z,20.60
2023-05-25T13:52:43.745Z,20.70
2023-05-25T13:55:10.450Z,20.80
2023-05-25T13:57:37.689Z,21.00
2023-05-25T14:00:05.752Z,21.10
2023-05-25T14:02:34.068Z,21.10
2023-05-25T14:05:00.966Z,21.00
2023-05-25T14:07:27.628Z,20.90
2023-05-25T14:09:54.232Z,21.00
2023-05-25T14:12:20.828Z,21.20
2023-05-25T14:14:47.419Z,21.10
2023-05-25T14:17:14.094Z,21.20
2023-05-25T14:19:40.771Z,21.10
2023-05-25T14:22:14.102Z,20.90
2023-05-25T14:24:41.818Z,20.80
2023-05-25T14:27:08.813Z,20.60
2023-05-25T14:29:35.473Z,20.70
2023-05-25T14:32:02.229Z,20.70
2023-05-25T14:34:29.481Z,20.70
2023-05-25T14:36:56.209Z,20.70
2023-05-25T14:39:22.945Z,20.50
2023-05-25T14:41:49.582Z,20.60
2023-05-25T14:44:16.511Z,20.50
2023-05-25T14:46:43.243Z,20.40
2023-05-25T14:49:10.183Z,20.30
2023-05-25T14:51:37.858Z,20.30
2023-05-25T14:54:06.291Z,20.50
2023-05-25T14:56:33.127Z,20.30
2023-05-25T14:58:59.714Z,20.10
2023-05-25T15:01:26.421Z,20.00
2023-05-25T15:03:53.242Z,20.00
2023-05-25T15:06:19.937Z,20.10
2023-05-25T15:08:46.610Z,20.20
2023-05-25T15:11:13.342Z,20.30
2023-05-25T15:13:41.045Z,20.30
2023-05-25T15:16:11.682Z,20.30
2023-05-25T15:18:38.490Z,20.40
2023-05-25T15:21:05.592Z,20.50
2023-05-25T15:23:32.355Z,20.80
2023-05-25T15:26:04.020Z,20.70
2023-05-25T15:28:31.240Z,20.80
2023-05-25T15:30:59.470Z,20.80
2023-05-25T15:33:39.479Z,20.80
2023-05-25T15:36:10.687Z,20.70
2023-05-25T15:38:37.357Z,20.60
2023-05-25T15:41:04.195Z,20.50
2023-05-25T15:43:30.799Z,20.50
2023-05-25T15:45:59.354Z,20.40
2023-05-25T15:48:26.525Z,20.50
2023-05-25T15:50:53.499Z,20.50
2023-05-25T15:53:20.289Z,20.50
2023-05-25T15:55:47.153Z,20.20
2023-05-25T15:58:13.939Z,20.30
2023-05-25T16:00:40.620Z,20.20
2023-05-25T16:03:07.560Z,20.20
2023-05-25T16:05:34.233Z,20.00
2023-05-25T16:08:00.918Z,19.80
2023-05-25T16:10:27.520Z,19.70
2023-05-25T16:12:54.132Z,19.50
2023-05-25T16:15:22.824Z,19.50
2023-05-25T16:17:49.464Z,19.50
2023-05-25T16:20:16.243Z,19.50
2023-05-25T16:22:43.034Z,19.60
2023-05-25T16:25:09.878Z,19.60
2023-05-25T16:27:36.567Z,19.60
2023-05-25T16:30:03.418Z,19.50
2023-05-25T16:32:30.505Z,19.50
2023-05-25T16:35:00.380Z,19.40
2023-05-25T16:37:27.805Z,19.30
2023-05-25T16:39:54.397Z,19.30
2023-05-25T16:42:21.093Z,19.30
2023-05-25T16:44:47.724Z,19.30
2023-05-25T16:47:14.348Z,19.30
2023-05-25T16:49:40.941Z,19.10
2023-05-25T16:52:07.688Z,19.30
2023-05-25T16:54:34.322Z,19.40
2023-05-25T16:57:02.119Z,19.30
2023-05-25T16:59:28.712Z,19.30
2023-05-25T17:01:55.762Z,19.30
2023-05-25T17:04:22.487Z,19.20
2023-05-25T17:06:49.126Z,19.10
2023-05-25T17:09:15.793Z,19.10
2023-05-25T17:11:42.401Z,19.00
2023-05-25T17:14:09.021Z,19.00
2023-05-25T17:16:35.696Z,19.10
2023-05-25T17:19:02.387Z,19.10
2023-05-25T17:21:29.064Z,19.00
2023-05-25T17:23:55.740Z,19.10
2023-05-25T17:26:22.656Z,19.10
2023-05-25T17:28:49.248Z,19.00
2023-05-25T17:31:16.000Z,19.00
2023-05-25T17:33:43.369Z,19.00
2023-05-25T17:36:10.074Z,17.90
2023-05-25T17:38:38.002Z,18.60
2023-05-25T17:41:04.650Z,18.80
2023-05-25T17:43:31.354Z,18.80
2023-05-25T17:45:59.203Z,18.70
2023-05-25T17:48:25.985Z,18.70
2023-05-25T17:50:52.674Z,18.60
2023-05-25T17:53:19.311Z,18.50
2023-05-25T17:55:46.075Z,18.50
2023-05-25T17:58:12.894Z,18.40
2023-05-25T18:00:40.094Z,18.30
2023-05-25T18:03:10.841Z,18.40
2023-05-25T18:05:37.492Z,18.30
2023-05-25T18:08:05.132Z,18.30
2023-05-25T18:10:32.613Z,18.20
2023-05-25T18:12:59.335Z,18.10
2023-05-25T18:15:26.049Z,18.10
2023-05-25T18:17:52.754Z,18.10
2023-05-25T18:20:20.001Z,18.00
2023-05-25T18:22:49.362Z,18.00
2023-05-25T18:25:16.487Z,17.90
2023-05-25T18:27:43.422Z,17.80
2023-05-25T18:30:10.845Z,17.80
2023-05-25T18:32:40.254Z,17.70
2023-05-25T18:35:07.441Z,17.60
2023-05-25T18:37:35.846Z,17.60
2023-05-25T18:40:03.378Z,17.50
2023-05-25T18:42:30.054Z,17.50
2023-05-25T18:44:56.723Z,17.40
2023-05-25T18:47:23.412Z,17.40
2023-05-25T18:49:50.067Z,17.30
2023-05-25T18:52:19.071Z,17.30
2023-05-25T18:54:46.384Z,17.20
2023-05-25T18:57:13.013Z,17.20
2023-05-25T18:59:41.481Z,17.10
2023-05-25T19:02:08.190Z,17.00
2023-05-25T19:04:34.871Z,17.00
2023-05-25T19:07:02.467Z,17.00
2023-05-25T19:09:29.073Z,16.90
2023-05-25T19:11:55.709Z,16.80
2023-05-25T19:14:22.406Z,16.80
2023-05-25T19:16:49.301Z,16.70
2023-05-25T19:19:16.109Z,16.60
2023-05-25T19:21:42.764Z,16.50
2023-05-25T19:24:10.007Z,16.50
2023-05-25T19:26:37.872Z,16.50
2023-05-25T19:29:04.655Z,16.50
2023-05-25T19:31:31.314Z,16.50
2023-05-25T19:33:57.957Z,16.50
2023-05-25T19:36:24.588Z,16.50
2023-05-25T19:38:51.247Z,16.50
2023-05-25T19:41:17.999Z,16.40
2023-05-25T19:43:44.726Z,16.30
2023-05-25T19:46:11.508Z,16.40
2023-05-25T19:48:41.147Z,16.20
2023-05-25T19:51:08.520Z,16.20
2023-05-25T19:53:35.237Z,16.10
2023-05-25T19:56:03.150Z,16.10
2023-05-25T19:58:29.857Z,16.10
2023-05-25T20:00:56.825Z,16.10
2023-05-25T20:03:23.767Z,16.10
2023-05-25T20:05:50.497Z,16.10
2023-05-25T20:08:17.228Z,16.10
2023-05-25T20:10:45.049Z,16.00
2023-05-25T20:13:12.538Z,16.00
2023-05-25T20:15:39.221Z,15.90
2023-05-25T20:18:05.902Z,15.90
2023-05-25T20:20:32.706Z,15.90
2023-05-25T20:22:59.492Z,15.80
2023-05-25T20:25:26.112Z,15.70
2023-05-25T20:27:52.736Z,15.50
2023-05-25T20:30:19.669Z,15.60
2023-05-25T20:32:46.483Z,14.70
2023-05-25T20:35:13.688Z,15.50
2023-05-25T20:37:41.911Z,15.40
2023-05-25T20:40:09.145Z,15.40
2023-05-25T20:42:36.049Z,15.40
2023-05-25T20:45:02.864Z,15.30
2023-05-25T20:47:29.564Z,15.30
2023-05-25T20:49:56.298Z,15.20
2023-05-25T20:52:24.050Z,15.20
2023-05-25T20:54:50.747Z,15.20
2023-05-25T20:57:17.444Z,15.10
2023-05-25T20:59:44.065Z,15.10
2023-05-25T21:02:10.950Z,15.00
2023-05-25T21:04:37.629Z,15.00
2023-05-25T21:07:04.458Z,14.90
2023-05-25T21:09:31.275Z,14.90
2023-05-25T21:11:58.594Z,14.90
2023-05-25T21:14:25.357Z,14.90
2023-05-25T21:16:51.993Z,14.80
2023-05-25T21:19:18.634Z,14.80
2023-05-25T21:21:45.316Z,14.80
2023-05-25T21:24:12.035Z,14.80
2023-05-25T21:26:38.610Z,14.70
2023-05-25T21:29:05.321Z,14.70
2023-05-25T21:31:32.191Z,14.70
2023-05-25T21:34:00.087Z,14.60
2023-05-25T21:36:27.103Z,14.60
2023-05-25T21:38:53.758Z,14.40
2023-05-25T21:41:20.419Z,14.60
2023-05-25T21:43:47.052Z,14.60
2023-05-25T21:46:16.595Z,14.50
2023-05-25T21:48:43.543Z,14.50
2023-05-25T21:51:10.355Z,14.50
2023-05-25T21:53:36.973Z,14.40
2023-05-25T21:56:03.717Z,14.40
2023-05-25T21:58:30.334Z,14.30
2023-05-25T22:00:57.029Z,14.40
2023-05-25T22:03:23.698Z,14.20
2023-05-25T22:05:50.388Z,14.30
2023-05-25T22:08:17.108Z,14.30
2023-05-25T22:10:43.724Z,14.30
2023-05-25T22:13:10.355Z,14.30
2023-05-25T22:15:36.971Z,14.30
2023-05-25T22:18:03.792Z,14.30
2023-05-25T22:20:30.403Z,14.30
2023-05-25T22:22:57.145Z,14.20
2023-05-25T22:25:24.685Z,14.10
2023-05-25T22:27:51.329Z,14.10
2023-05-25T22:30:17.974Z,14.10
2023-05-25T22:32:44.678Z,14.00
2023-05-25T22:35:11.435Z,14.00
2023-05-25T22:37:38.064Z,14.00
2023-05-25T22:40:06.081Z,13.90
2023-05-25T22:42:32.779Z,13.90
2023-05-25T22:44:59.389Z,12.50
2023-05-25T22:47:26.094Z,13.70
2023-05-25T22:49:52.771Z,13.70
2023-05-25T22:52:19.570Z,13.60
2023-05-25T22:54:46.196Z,13.60
2023-05-25T22:57:12.895Z,13.50
2023-05-25T22:59:39.570Z,13.50
2023-05-25T23:02:06.646Z,13.40
2023-05-25T23:04:35.693Z,13.40
2023-05-25T23:07:02.672Z,13.30
2023-05-25T23:09:29.290Z,13.30
2023-05-25T23:11:55.957Z,13.20
2023-05-25T23:14:22.554Z,13.10
2023-05-25T23:16:49.283Z,13.10
2023-05-25T23:19:16.653Z,13.00
2023-05-25T23:21:43.590Z,12.90
2023-05-25T23:24:10.400Z,12.90
2023-05-25T23:26:37.042Z,12.90
2023-05-25T23:29:03.786Z,12.80
2023-05-25T23:31:30.597Z,12.80
2023-05-25T23:33:57.323Z,12.70
2023-05-25T23:36:26.152Z,12.70
2023-05-25T23:38:53.143Z,12.70
2023-05-25T23:41:19.807Z,12.60
2023-05-25T23:43:46.631Z,12.50
2023-05-25T23:46:16.168Z,12.50
2023-05-25T23:48:43.483Z,12.40
2023-05-25T23:51:10.595Z,12.40
2023-05-25T23:53:38.390Z,12.40
2023-05-25T23:56:05.226Z,12.30
2023-05-25T23:58:31.865Z,12.20
